Piedmont Triad International Airport
KGSO : now visible

Airfield :











YOU CAN JOIN US ON...

 
LOGIN :

Register | Disclaimer

   EN    FR    IT 

 









Legend :    VFR   Marginal VFR   IFR   Intensive IFR   Very Intensive IFR
Visi :
Ceiling :
>= 8 km
>= 3000ft
5 to 8 km
1000 to 3000 ft
1500m to 5 km
500 to 1000 ft
800 to 1500m
200 to 500 ft
< 800m
< 200 ft
Symbols :   Thunderstorms  Fog  Heavy snow  Heavy precipitations  Wind > 20 kt







- Airport Elevation : 925 ft
- IATA code : GSO


KGSO - Piedmont Triad International

CURRENT METAR :
  • 261354Z 32007KT 10SM FEW250 29/18 A3013 RMK AO2 SLP191 T02890183

EXPIRED METARs :
  • 261254Z 28005KT 10SM FEW250 27/23 A3013 RMK AO2 SLP190 T02670228
  • 261154Z 25005KT 5SM BR FEW250 24/23 A3012 RMK AO2 SLP187 T02390233 10239 20211 51011

TAF KGSO
Valid from the 26 at 12:00 until the 27 at 12:00 UTC


261120Z 2612/2712 23005KT P6SM SCT250
TEMPO 2612/2613 5SM BR
FM261500 28008KT P6SM FEW060 SCT250
KZTL FIR / North America



MET'MAP, your aeronautical weather chart ! - Copyright ORBIFLY December 2007 - Disclaimer

ORBIFLY MET'MAP TEAM :

Programming & Development : Alexandra Zaïnal
Concept & Development : Baudouin d'Aumeries
Co-Development & Prog : Marc-Olivier Méhu
Technical & hardware support : Manuel Goepfert

Contact : metmap@orbifly.com




SOURCES & CREDITS :

   NOAA       Earth
Advisory